KOF weather

Komatipoort Airport
Komatipoort, Mpumalanga, South Africa

Public forecast

Using degrees Celsius for public forecast. Weather courtesy of forecast.io.

METAR (pilot weather report)

Closest report is Kruger Mpumalanga International Airport, 44.8 nm (83.0 km) W. Retrieved 2019/07/15 19:00 UTC (15 minutes ago):

FAKN 151900Z AUTO 00000KT //// // ////// 17/04 Q1027

TAF (pilot weather forecast)

Forecast is more than 12 hours old.

Closest forecast is Kruger Mpumalanga International Airport, 44.8 nm (83.0 km) W. Retrieved 2017/06/05 04:55 UTC (2 years ago):

TAF FAKN 050300Z 0504/0515 25006KT CAVOK BECMG 0511/0513 13005KT SCT030 BECMG 0513/0515 07005KT TX22/0513ZTN08/0504Z